Latest Weather Observations for Kanagulk

IDV60801

Issued at 7:02 pm EST Tuesday 23 May 2017 (issued every 30 minutes, with the page automatically refreshed every 10 minutes)

About weather observations | Map of weather stations | Latest weather observations for VIC | Other Formats
Station Details ID: 079097 Name: KANAGULK Lat: -37.12 Lon: 141.80 Height: 188.8 m
Data from the previous 72 hours. | See also: Recent months at Kanagulk
Date/Time
EST
Temp
°C
App
Temp
°C
Dew
Point
°C
Rel
Hum
%
Delta-T
°C
Wind Press
QNH
hPa
Press
MSL
hPa
Rain since
9am
mm
Dir  Spd
km/h
Gust
km/h
Spd
kts
Gust
kts
23/07:00pm 13.8 10.9 9.8 77 2.1 NNW 15 30 8 16 1013.8 1013.8 0.0
23/06:30pm 12.9 11.7 9.5 80 1.7 NNW 6 9 3 5 1013.6 1013.6 0.0
23/06:00pm 12.5 11.0 8.6 77 2.0 NNW 6 7 3 4 1013.6 1013.6 0.0
23/05:30pm 13.7 13.0 8.7 72 2.5 NNW 2 7 1 4 1013.4 1013.4 0.0
23/05:00pm 15.2 13.3 9.1 67 3.2 NW 9 15 5 8 1013.6 1013.6 0.0
23/04:30pm 16.3 13.8 9.7 65 3.5 NW 13 20 7 11 1013.7 1013.7 0.0
23/04:00pm 16.3 13.3 9.3 63 3.7 NW 15 20 8 11 1013.7 1013.7 0.0
23/03:30pm 16.6 13.2 9.3 62 3.8 NW 17 28 9 15 1013.7 1013.7 0.0
23/03:00pm 16.9 13.0 8.8 59 4.2 NNW 19 26 10 14 1013.7 1013.7 0.0
23/02:30pm 17.1 14.4 10.2 64 3.7 NNW 15 24 8 13 1013.8 1013.8 0.0
23/02:00pm 17.0 14.9 11.3 69 3.1 NNW 13 22 7 12 1014.2 1014.2 0.0
23/01:30pm 16.0 14.4 11.4 74 2.5 NNW 11 17 6 9 1014.6 1014.6 0.0
23/01:00pm 15.6 13.7 11.8 78 2.1 NW 13 20 7 11 1015.3 1015.4 0.0
23/12:30pm 15.6 14.1 12.0 79 2.0 NW 11 19 6 10 1015.6 1015.7 0.0
23/12:00pm 15.1 13.4 12.4 84 1.5 NNW 13 20 7 11 1015.8 1015.9 0.0
23/11:30am 14.1 12.7 12.1 88 1.1 NW 11 20 6 11 1016.7 1016.8 0.0
23/11:00am 14.5 14.1 14.0 97 0.3 N 9 15 5 8 1016.3 1016.4 0.0
23/10:30am 13.8 12.8 13.5 98 0.2 NNW 11 20 6 11 1017.0 1017.1 0.0
23/10:00am 13.3 12.6 13.1 99 0.1 N 9 19 5 10 1017.0 1017.1 0.0
23/09:30am 12.8 12.3 12.6 99 0.1 NNW 7 13 4 7 1017.3 1017.4 0.0
23/09:00am 12.3 11.2 12.1 99 0.1 N 9 13 5 7 1017.3 1017.4 5.6
23/08:30am 12.1 11.0 11.9 99 0.1 N 9 13 5 7 1017.0 1017.1 5.6
23/08:00am 12.0 10.5 11.8 99 0.1 N 11 17 6 9 1016.7 1016.8 5.6
23/07:30am 11.8 9.5 11.8 100 0.0 N 15 20 8 11 1016.7 1016.8 5.6
23/07:00am 11.8 10.2 11.6 99 0.1 NNE 11 13 6 7 1016.2 1016.3 5.6
23/06:30am 12.0 10.9 11.8 99 0.1 N 9 15 5 8 1016.2 1016.3 5.6
23/06:00am 12.0 10.1 11.8 99 0.1 N 13 19 7 10 1016.1 1016.2 5.6
23/05:30am 11.7 10.5 11.5 99 0.1 N 9 13 5 7 1015.9 1016.0 5.6
23/05:00am 11.9 10.3 11.7 99 0.1 NNE 11 15 6 8 1015.8 1015.9 5.6
23/04:30am 11.8 10.2 11.6 99 0.1 N 11 15 6 8 1015.7 1015.8 5.6
23/04:00am 11.9 10.7 11.7 99 0.1 N 9 15 5 8 1015.7 1015.8 5.6
23/03:30am 12.0 11.2 11.8 99 0.1 N 7 11 4 6 1016.0 1016.1 5.6
23/03:00am 12.0 10.5 11.8 99 0.1 N 11 19 6 10 1016.0 1016.1 5.6
23/02:30am 12.0 10.5 11.8 99 0.1 N 11 15 6 8 1015.9 1016.0 5.4
23/02:00am 12.0 8.4 11.8 99 0.1 NE 22 28 12 15 1016.1 1016.2 5.4
23/01:30am 12.3 9.7 12.1 99 0.1 NNE 17 24 9 13 1016.8 1016.9 4.4
23/01:00am 12.3 11.2 12.1 99 0.1 NNW 9 15 5 8 1017.5 1017.6 2.8
23/12:30am 12.2 12.8 12.0 99 0.1 CALM 0 4 0 2 1016.9 1017.0 2.0
23/12:00am 12.3 10.9 12.1 99 0.1 NNE 11 15 6 8 1017.2 1017.3 2.0
 
Date/Time
EST
Temp
°C
App
Temp
°C
Dew
Point
°C
Rel
Hum
%
Delta-T
°C
Wind Press
QNH
hPa
Press
MSL
hPa
Rain since
9am
mm
Dir  Spd
km/h
Gust
km/h
Spd
kts
Gust
kts
22/11:30pm 12.8 13.1 12.2 96 0.3 NW 2 11 1 6 1017.0 1017.1 2.0
22/11:00pm 13.4 11.8 11.5 88 1.0 NNW 11 17 6 9 1017.7 1017.8 0.8
22/10:30pm 14.2 10.7 10.2 77 2.1 NNE 19 30 10 16 1016.5 1016.6 0.2
22/10:00pm 14.6 10.9 10.2 75 2.3 NNE 20 28 11 15 1016.4 1016.5 0.2
22/09:30pm 15.2 10.7 10.2 72 2.6 NNE 24 39 13 21 1016.3 1016.4 0.2
22/09:00pm 15.3 11.6 10.3 72 2.6 NNE 20 30 11 16 1016.1 1016.2 0.2
22/08:30pm 15.3 10.9 10.3 72 2.6 NNE 24 32 13 17 1015.8 1015.9 0.2
22/08:00pm 15.7 12.0 10.0 69 3.0 N 20 30 11 16 1016.2 1016.3 0.2
22/07:30pm 15.8 11.3 9.9 68 3.1 NNE 24 33 13 18 1015.6 1015.7 0.2
22/07:00pm 16.2 11.6 9.6 65 3.5 NNE 24 33 13 18 1015.3 1015.4 0.2
22/06:30pm 15.9 12.2 10.2 69 3.0 NNE 20 30 11 16 1014.5 1014.5 0.2
22/06:00pm 15.6 12.0 10.4 71 2.8 NNE 20 24 11 13 1014.9 1014.9 0.2
22/05:30pm 16.2 13.2 10.5 69 3.0 NNE 17 22 9 12 1015.1 1015.1 0.2
22/05:00pm 17.0 13.8 10.1 64 3.7 NNE 17 24 9 13 1015.2 1015.2 0.2
22/04:30pm 17.8 13.6 9.9 60 4.2 N 22 32 12 17 1015.0 1015.0 0.2
22/04:00pm 18.8 14.2 9.8 56 4.8 N 24 33 13 18 1015.1 1015.1 0.2
22/03:30pm 19.4 13.5 9.0 51 5.5 N 30 41 16 22 1015.2 1015.2 0.2
22/03:00pm 19.5 13.5 10.0 54 5.1 NNE 32 41 17 22 1015.0 1015.0 0.2
22/02:32pm 18.4 11.5 8.9 54 5.0 N 35 54 19 29 1015.2 1015.2 0.2
22/02:30pm 18.5 11.8 9.8 57 4.7 N 35 46 19 25 1015.2 1015.2 0.2
22/02:13pm 18.4 12.9 9.2 55 4.9 N 28 48 15 26 1015.6 1015.7 0.2
22/02:00pm 19.3 13.7 10.3 56 4.9 N 30 46 16 25 1015.7 1015.8 0.2
22/01:30pm 19.3 13.4 10.6 57 4.7 N 32 52 17 28 1016.1 1016.2 0.0
22/01:21pm 19.1 13.7 9.6 54 5.1 N 28 52 15 28 1016.3 1016.4 0.0
22/01:00pm 19.0 13.7 9.8 55 4.9 N 28 41 15 22 1016.6 1016.7 0.0
22/12:30pm 18.4 13.0 11.0 62 4.0 N 30 41 16 22 1017.1 1017.2 0.0
22/12:03pm 17.8 12.6 10.2 61 4.1 N 28 46 15 25 1017.4 1017.5 0.0
22/12:00pm 17.8 12.5 11.1 65 3.7 N 30 46 16 25 1017.4 1017.5 0.0
22/11:52am 17.3 11.5 10.7 65 3.6 N 32 50 17 27 1017.4 1017.5 0.0
22/11:30am 16.6 11.4 10.2 66 3.4 NNE 28 41 15 22 1017.7 1017.8 0.0
22/11:00am 15.7 10.8 11.3 75 2.4 NNE 28 37 15 20 1018.4 1018.5 0.0
22/10:30am 14.6 10.3 10.6 77 2.1 NNE 24 30 13 16 1018.9 1018.9 0.0
22/10:00am 13.5 8.9 9.7 78 2.0 N 24 37 13 20 1019.2 1019.2 0.0
22/09:30am 12.9 8.3 9.5 80 1.7 NNE 24 35 13 19 1019.2 1019.2 0.0
22/09:00am 11.4 6.3 9.1 86 1.2 NNE 26 33 14 18 1019.5 1019.5 0.0
22/08:30am 10.5 5.2 8.6 88 0.9 NNE 26 35 14 19 1019.2 1019.2 0.0
22/08:00am 9.9 4.6 8.5 91 0.7 NNE 26 33 14 18 1019.1 1019.1 0.0
22/07:30am 9.9 4.6 8.5 91 0.7 NNE 26 35 14 19 1019.0 1019.0 0.0
22/07:00am 9.9 5.0 8.5 91 0.7 NNE 24 35 13 19 1018.9 1018.9 0.0
22/06:30am 9.8 5.0 8.7 93 0.5 NNE 24 32 13 17 1018.8 1018.8 0.0
22/06:00am 9.3 5.3 9.2 99 0.0 NNE 20 26 11 14 1018.8 1018.8 0.0
22/05:30am 9.2 5.4 9.1 99 0.0 NNE 19 24 10 13 1018.9 1018.9 0.0
22/05:00am 9.2 5.8 9.1 99 0.0 NE 17 20 9 11 1018.8 1018.8 0.0
22/04:30am 9.0 5.9 8.9 99 0.0 NE 15 19 8 10 1018.9 1018.9 0.0
22/04:00am 8.8 6.0 8.7 99 0.0 NNE 13 15 7 8 1018.9 1018.9 0.0
22/03:30am 9.0 6.3 8.9 99 0.0 NNE 13 15 7 8 1018.9 1018.9 0.0
22/03:00am 9.3 6.3 9.2 99 0.0 NE 15 17 8 9 1019.0 1019.0 0.0
22/02:30am 9.1 6.7 8.6 97 0.2 NE 11 13 6 7 1019.2 1019.2 0.0
22/02:00am 9.5 6.8 8.9 96 0.3 NNE 13 17 7 9 1019.2 1019.2 0.0
22/01:30am 10.4 7.0 9.3 93 0.6 NNE 17 22 9 12 1019.3 1019.3 0.0
22/01:00am 9.9 7.5 8.8 93 0.5 NE 11 15 6 8 1019.4 1019.4 0.0
22/12:30am 9.6 7.2 8.7 94 0.4 NE 11 13 6 7 1019.7 1019.7 0.0
22/12:00am 10.3 7.3 9.1 92 0.6 NNE 15 17 8 9 1019.8 1019.9 0.0
 
Date/Time
EST
Temp
°C
App
Temp
°C
Dew
Point
°C
Rel
Hum
%
Delta-T
°C
Wind Press
QNH
hPa
Press
MSL
hPa
Rain since
9am
mm
Dir  Spd
km/h
Gust
km/h
Spd
kts
Gust
kts
21/11:30pm 10.1 7.0 9.0 93 0.5 NNE 15 17 8 9 1019.7 1019.7 0.0
21/11:00pm 10.3 7.6 8.9 91 0.7 NNE 13 15 7 8 1019.7 1019.7 0.0
21/10:30pm 10.6 7.9 9.0 90 0.8 NNE 13 15 7 8 1019.8 1019.9 0.0
21/10:00pm 10.9 9.0 9.2 89 0.9 NNE 9 11 5 6 1019.9 1020.0 0.0
21/09:30pm 11.5 8.9 9.4 87 1.1 NNE 13 15 7 8 1019.8 1019.9 0.0
21/09:00pm 12.4 10.5 9.2 81 1.6 N 9 11 5 6 1019.7 1019.7 0.0
21/08:30pm 12.9 10.7 9.5 80 1.7 NNE 11 13 6 7 1019.5 1019.5 0.0
21/08:00pm 13.5 11.1 10.1 80 1.8 NNE 13 17 7 9 1019.2 1019.2 0.0
21/07:30pm 13.8 11.1 10.2 79 1.9 NNE 15 17 8 9 1019.1 1019.1 0.0
21/07:00pm 14.0 12.0 10.2 78 2.0 N 11 13 6 7 1018.9 1018.9 0.0
21/06:30pm 13.9 12.1 10.7 81 1.7 NNE 11 13 6 7 1018.5 1018.6 0.0
21/06:00pm 14.3 13.1 10.3 77 2.1 N 7 9 4 5 1018.3 1018.4 0.0
21/05:30pm 15.5 14.3 10.3 71 2.8 N 7 9 4 5 1018.0 1018.1 0.0
21/05:00pm 16.7 15.4 10.1 65 3.5 N 7 11 4 6 1018.0 1018.1 0.0
21/04:30pm 19.1 16.7 9.9 55 4.9 N 13 19 7 10 1017.9 1018.0 0.0
21/04:00pm 19.4 17.2 9.3 52 5.4 NNW 11 20 6 11 1017.8 1017.9 0.0
21/03:30pm 20.1 17.7 9.9 52 5.5 NNW 13 24 7 13 1017.7 1017.8 0.0
21/03:00pm 19.4 16.9 12.4 64 3.9 NNE 17 22 9 12 1017.6 1017.7 0.0
21/02:30pm 19.3 17.1 13.3 68 3.4 NNE 17 26 9 14 1017.6 1017.7 0.0
21/02:00pm 18.8 15.9 12.3 66 3.6 NNE 19 24 10 13 1017.7 1017.8 0.0
21/01:30pm 18.7 17.1 13.8 73 2.8 N 15 22 8 12 1017.7 1017.8 0.0
21/01:00pm 18.1 16.0 13.6 75 2.6 NNE 17 20 9 11 1018.1 1018.2 0.0
21/12:30pm 17.4 15.9 13.1 76 2.4 N 13 19 7 10 1018.5 1018.6 0.0
21/12:00pm 16.8 14.7 13.5 81 1.9 NE 17 20 9 11 1019.0 1019.0 0.0
21/11:30am 16.0 14.1 14.2 89 1.0 NNE 17 20 9 11 1019.3 1019.3 0.0
21/11:00am 14.2 12.5 13.6 96 0.3 NE 15 17 8 9 1019.5 1019.5 0.0
21/10:30am 13.4 11.2 13.2 99 0.1 NE 17 20 9 11 1019.5 1019.5 0.0
21/10:00am 12.8 10.8 12.6 99 0.1 NE 15 19 8 10 1019.4 1019.4 0.0
21/09:30am 12.8 10.4 12.6 99 0.1 NNE 17 22 9 12 1019.6 1019.6 0.0
21/09:00am 11.9 10.0 11.9 100 0.0 NE 13 17 7 9 1019.3 1019.3 0.4
21/08:30am 10.9 9.1 10.9 100 0.0 NE 11 15 6 8 1019.2 1019.2 0.4
21/08:00am 10.4 8.1 10.4 100 0.0 NNE 13 17 7 9 1018.9 1018.9 0.4
21/07:30am 10.2 8.6 10.2 100 0.0 NE 9 11 5 6 1018.5 1018.6 0.4
21/07:00am 10.6 8.7 10.6 100 0.0 NNE 11 13 6 7 1018.1 1018.2 0.4
21/06:30am 11.0 9.6 11.0 100 0.0 NE 9 13 5 7 1017.9 1018.0 0.4
21/06:00am 11.2 9.5 11.2 100 0.0 NE 11 15 6 8 1017.9 1018.0 0.4
21/05:30am 11.1 9.8 11.1 100 0.0 NNE 9 13 5 7 1017.7 1017.8 0.4
21/05:00am 11.1 9.8 11.1 100 0.0 NE 9 11 5 6 1017.6 1017.7 0.4
21/04:30am 11.1 9.4 11.1 100 0.0 NNE 11 15 6 8 1017.6 1017.7 0.2
21/04:00am 11.0 8.9 11.0 100 0.0 NNE 13 19 7 10 1017.3 1017.4 0.2
21/03:30am 10.8 8.2 10.8 100 0.0 NNE 15 20 8 11 1017.4 1017.5 0.2
21/03:00am 10.9 8.4 10.9 100 0.0 NNE 15 19 8 10 1017.3 1017.4 0.2
21/02:30am 11.1 7.9 11.1 100 0.0 NNE 19 24 10 13 1017.2 1017.3 0.2
21/02:00am 10.9 8.0 10.9 100 0.0 NNE 17 19 9 10 1017.3 1017.4 0.2
21/01:30am 10.9 8.4 10.9 100 0.0 NNE 15 19 8 10 1017.4 1017.5 0.2
21/01:00am 11.1 8.2 11.1 100 0.0 NNE 17 20 9 11 1017.4 1017.5 0.2
21/12:30am 11.6 8.9 11.6 100 0.0 NNE 17 22 9 12 1017.3 1017.4 0.2
21/12:00am 11.8 8.8 11.8 100 0.0 NNE 19 22 10 12 1017.4 1017.5 0.2
 
Date/Time
EST
Temp
°C
App
Temp
°C
Dew
Point
°C
Rel
Hum
%
Delta-T
°C
Wind Press
QNH
hPa
Press
MSL
hPa
Rain since
9am
mm
Dir  Spd
km/h
Gust
km/h
Spd
kts
Gust
kts
20/11:30pm 11.3 9.2 11.3 100 0.0 NNE 13 17 7 9 1017.4 1017.5 0.2
20/11:00pm 11.0 8.9 11.0 100 0.0 NNE 13 15 7 8 1017.4 1017.5 0.0
20/10:30pm 11.2 8.7 11.2 100 0.0 NE 15 17 8 9 1017.4 1017.5 0.0
20/10:00pm 10.7 8.9 10.7 100 0.0 NE 11 13 6 7 1017.5 1017.6 0.0
20/09:30pm 11.2 9.5 11.2 100 0.0 NE 11 13 6 7 1017.4 1017.5 0.0
20/09:00pm 11.6 10.4 11.6 100 0.0 NNE 9 13 5 7 1017.3 1017.4 0.0
20/08:30pm 11.6 9.3 11.6 100 0.0 NE 15 17 8 9 1017.1 1017.2 0.0
20/08:00pm 11.2 9.9 11.2 100 0.0 NE 9 15 5 8 1017.0 1017.1 0.0
20/07:30pm 11.6 10.0 11.4 99 0.1 NE 11 13 6 7 1016.7 1016.8 0.0

Other Formats:

Comma delimited format used in spreadsheet applications
http://www.bom.gov.au/fwo/IDV60801/IDV60801.95827.axf

JavaScript Object Notation format (JSON) in row-major order
http://www.bom.gov.au/fwo/IDV60801/IDV60801.95827.json